Rocky Hill, Mississippi
Current Conditions -  °F | °C
As of 4:15 AM on Wednesday 26 Nov 2014 (Local Time) from KSTF Reporting Station
NA  
Wind Chill: -3°   Ceiling: NA
Heat Index: -3°   Visibility: NA
Dew Point: -3°   Wind: 0mph
Humidity: 100%   Direction: NA
Pressure: 30.18"   Gusts: NA
Location:  33.4256°N, 88.8438°W
Report Text: KSTF 261015Z AUTO 00000KT M03/M03 A3018 RMK AO2 PWINO
Loading
Personal Weather Stations






























Interactive Weather Map New forecast layout! Learn more

10-Day Weather Forecast

Advertisements
Track Severe Weather on mobile